Time;durP1;ratioP1;P1;durP2;ratioP2;P2;SDS_P1;SDS_P2;PMS_P1;PMS_P2;Temp;Humidity;BMP_temperature;BMP_pressure;BME280_temperature;BME280_humidity;BME280_pressure;Samples;Min_cycle;Max_cycle;Signal;HPM_P1;HPM_P2
2022/11/20 00:01:33;;;;;;;16.98;11.70;;;4.10;99.90;;;;;;5051987;28;20250;-65
2022/11/20 00:04:02;;;;;;;18.17;10.77;;;4.10;99.90;;;;;;5070826;28;20646;-66
2022/11/20 00:06:30;;;;;;;15.63;11.40;;;4.10;99.90;;;;;;5071467;28;20211;-65
2022/11/20 00:09:01;;;;;;;16.92;12.73;;;4.10;99.90;;;;;;5060581;28;20699;-65
2022/11/20 00:11:30;;;;;;;16.75;11.57;;;4.20;99.90;;;;;;5052591;28;20258;-63
2022/11/20 00:14:01;;;;;;;24.15;15.00;;;4.00;99.90;;;;;;5072043;28;20211;-63
2022/11/20 00:16:31;;;;;;;20.25;12.80;;;4.00;99.90;;;;;;5056664;28;20185;-63
2022/11/20 00:19:00;;;;;;;15.60;10.95;;;4.00;99.90;;;;;;5058352;28;20215;-63
2022/11/20 00:21:29;;;;;;;16.67;11.30;;;4.00;99.90;;;;;;5072272;28;20204;-64
2022/11/20 00:23:58;;;;;;;16.25;11.20;;;4.10;99.90;;;;;;5071496;28;20223;-65
2022/11/20 00:26:28;;;;;;;20.52;13.45;;;4.10;99.90;;;;;;5068985;28;20192;-65
2022/11/20 00:28:58;;;;;;;16.77;11.80;;;4.20;99.90;;;;;;5061399;28;20235;-64
2022/11/20 00:31:27;;;;;;;17.17;12.50;;;4.20;99.90;;;;;;5053358;28;20192;-65
2022/11/20 00:33:55;;;;;;;20.15;12.48;;;4.20;99.90;;;;;;5051892;28;20196;-65
2022/11/20 00:36:26;;;;;;;18.55;11.77;;;4.20;99.90;;;;;;5052808;28;20285;-65
2022/11/20 00:38:56;;;;;;;15.95;12.05;;;4.20;99.90;;;;;;5054120;28;20201;-65
2022/11/20 00:41:25;;;;;;;16.52;12.60;;;4.10;99.90;;;;;;5070891;28;20204;-64
2022/11/20 00:43:54;;;;;;;17.83;12.73;;;4.10;99.90;;;;;;5058073;28;20191;-65
2022/11/20 00:46:24;;;;;;;19.60;12.77;;;4.10;99.90;;;;;;5068709;28;20254;-65
2022/11/20 00:48:52;;;;;;;18.13;12.05;;;4.10;99.90;;;;;;5058400;28;20216;-66
2022/11/20 00:51:22;;;;;;;20.63;11.55;;;3.90;99.90;;;;;;5072302;28;20195;-66
2022/11/20 00:53:51;;;;;;;20.48;12.90;;;4.10;99.90;;;;;;5059679;28;20219;-66
2022/11/20 00:56:20;;;;;;;21.55;14.27;;;4.20;99.90;;;;;;5058351;28;20204;-67
2022/11/20 00:58:49;;;;;;;20.00;12.57;;;4.10;99.90;;;;;;5064944;28;20206;-65
2022/11/20 01:01:19;;;;;;;23.95;14.88;;;4.00;99.90;;;;;;5068031;28;20195;-65
2022/11/20 01:03:49;;;;;;;21.35;12.63;;;4.00;99.90;;;;;;5055605;28;20655;-65
2022/11/20 01:06:19;;;;;;;22.00;13.73;;;4.00;99.90;;;;;;5058291;28;20192;-65
2022/11/20 01:08:48;;;;;;;20.73;13.45;;;4.10;99.90;;;;;;5058643;28;20204;-66
2022/11/20 01:11:19;;;;;;;26.83;14.13;;;4.10;99.90;;;;;;5058405;28;20220;-66
2022/11/20 01:13:48;;;;;;;25.67;14.57;;;4.00;99.90;;;;;;5060740;28;20235;-65
2022/11/20 01:16:18;;;;;;;24.50;14.48;;;4.10;99.90;;;;;;5059210;28;20207;-65
2022/11/20 01:18:48;;;;;;;22.73;13.45;;;4.10;99.90;;;;;;5058173;28;20197;-65
2022/11/20 01:21:18;;;;;;;23.95;14.25;;;4.10;99.90;;;;;;5066844;28;20180;-66
2022/11/20 01:23:48;;;;;;;21.33;13.50;;;4.20;99.90;;;;;;5069828;28;20193;-66
2022/11/20 01:26:20;;;;;;;21.50;12.98;;;4.20;99.90;;;;;;5058295;28;20208;-65
2022/11/20 01:28:48;;;;;;;18.02;11.38;;;4.20;99.90;;;;;;5057501;28;20243;-66
2022/11/20 01:31:18;;;;;;;20.63;13.30;;;4.20;99.90;;;;;;5068476;28;20223;-65
2022/11/20 01:33:48;;;;;;;21.50;13.05;;;4.20;99.90;;;;;;5058369;28;20204;-66
2022/11/20 01:36:17;;;;;;;17.65;11.57;;;4.20;99.90;;;;;;5065906;28;20196;-65
2022/11/20 01:38:45;;;;;;;23.48;14.05;;;4.20;99.90;;;;;;5069573;28;20197;-65
2022/11/20 01:43:20;;;;;;;20.83;12.68;;;4.20;99.90;;;;;;5058088;28;20211;-66
2022/11/20 01:44:04;;;;;;;21.85;13.43;;;4.30;99.90;;;;;;5059488;28;20189;-67
2022/11/20 01:46:33;;;;;;;18.58;13.00;;;4.30;99.90;;;;;;5069014;28;20192;-65
2022/11/20 01:49:04;;;;;;;16.27;11.10;;;4.40;99.90;;;;;;5058178;28;20207;-65
2022/11/20 01:51:39;;;;;;;20.27;13.15;;;4.40;99.90;;;;;;5075190;28;20208;-65
2022/11/20 01:54:12;;;;;;;22.02;13.30;;;4.40;99.90;;;;;;5075681;28;20183;-65
2022/11/20 01:56:43;;;;;;;21.00;13.43;;;4.40;99.90;;;;;;5074445;28;20627;-66
2022/11/20 01:59:16;;;;;;;18.17;12.00;;;4.50;99.90;;;;;;5075171;28;20241;-67
2022/11/20 02:01:44;;;;;;;20.08;13.35;;;4.50;99.90;;;;;;5072845;28;20192;-66
2022/11/20 02:04:14;;;;;;;22.00;12.75;;;4.60;99.90;;;;;;5052511;28;20207;-65
2022/11/20 02:06:45;;;;;;;25.75;15.63;;;4.60;99.90;;;;;;5053968;28;20205;-65
2022/11/20 02:09:13;;;;;;;20.60;11.75;;;4.70;99.90;;;;;;5054712;28;20193;-66
2022/11/20 02:11:41;;;;;;;18.92;12.52;;;4.70;99.90;;;;;;5053257;28;20228;-65
2022/11/20 02:14:08;;;;;;;20.70;12.70;;;4.80;99.90;;;;;;5054802;28;20197;-65
2022/11/20 02:16:41;;;;;;;16.70;12.10;;;4.90;99.90;;;;;;5054480;28;20571;-65
2022/11/20 02:19:17;;;;;;;16.08;11.25;;;4.90;99.90;;;;;;5055676;28;20193;-65
2022/11/20 02:21:51;;;;;;;19.77;13.13;;;4.90;99.90;;;;;;5057077;28;20184;-66
2022/11/20 02:24:22;;;;;;;20.38;13.10;;;4.80;99.90;;;;;;5054915;28;20233;-66
2022/11/20 02:26:54;;;;;;;17.55;12.00;;;4.80;99.90;;;;;;5052680;28;20204;-66
2022/11/20 02:29:27;;;;;;;23.63;13.27;;;4.80;99.90;;;;;;5054030;28;20236;-65
2022/11/20 02:31:57;;;;;;;20.92;13.68;;;4.90;99.90;;;;;;5053689;28;20196;-65
2022/11/20 02:34:25;;;;;;;21.60;13.55;;;5.00;99.90;;;;;;5054054;28;20469;-66
2022/11/20 02:36:54;;;;;;;25.67;13.35;;;5.00;99.90;;;;;;5035626;28;20192;-65
2022/11/20 02:39:25;;;;;;;23.88;14.73;;;5.00;99.90;;;;;;5054048;28;20534;-65
2022/11/20 02:41:54;;;;;;;19.05;13.15;;;5.00;99.90;;;;;;5053533;28;20185;-65
2022/11/20 02:44:22;;;;;;;20.70;13.40;;;5.10;99.90;;;;;;5053775;28;20201;-66
2022/11/20 02:46:50;;;;;;;22.08;15.45;;;5.10;99.90;;;;;;5053727;28;20552;-66
2022/11/20 02:49:18;;;;;;;20.27;13.38;;;5.20;99.90;;;;;;5053977;28;20562;-66
2022/11/20 02:51:45;;;;;;;24.60;14.93;;;5.20;99.90;;;;;;5053650;28;20231;-66
2022/11/20 02:54:13;;;;;;;22.23;14.60;;;5.30;99.90;;;;;;5053678;28;20632;-66
2022/11/20 02:56:43;;;;;;;23.65;14.93;;;5.40;99.90;;;;;;5054168;28;20223;-66
2022/11/20 02:59:11;;;;;;;26.85;14.30;;;5.60;99.90;;;;;;5053305;28;20207;-65
2022/11/20 03:01:39;;;;;;;19.90;14.00;;;5.70;99.90;;;;;;5053590;28;20200;-65
2022/11/20 03:04:07;;;;;;;20.90;15.02;;;5.90;99.90;;;;;;5052339;28;20216;-65
2022/11/20 03:06:34;;;;;;;22.95;14.45;;;5.90;99.90;;;;;;5053384;28;20213;-65
2022/11/20 03:09:02;;;;;;;21.30;12.88;;;6.00;99.90;;;;;;5051724;28;20671;-65
2022/11/20 03:11:31;;;;;;;20.08;12.80;;;6.10;99.90;;;;;;5053678;28;20232;-65
2022/11/20 03:14:03;;;;;;;22.02;12.45;;;6.20;99.90;;;;;;5053329;28;20200;-65
2022/11/20 03:16:32;;;;;;;22.42;13.93;;;6.20;99.90;;;;;;5053772;28;20640;-65
2022/11/20 03:19:00;;;;;;;20.75;13.52;;;6.30;99.90;;;;;;5053353;28;20192;-65
2022/11/20 03:21:28;;;;;;;20.73;12.95;;;6.30;99.90;;;;;;5053703;28;20197;-66
2022/11/20 03:23:56;;;;;;;20.30;12.40;;;6.30;99.90;;;;;;5053104;28;20246;-65
2022/11/20 03:26:26;;;;;;;15.85;11.18;;;6.30;99.90;;;;;;5052898;28;20781;-66
2022/11/20 03:28:56;;;;;;;19.08;12.05;;;6.40;99.90;;;;;;5053048;28;20229;-66
2022/11/20 03:31:27;;;;;;;16.45;12.20;;;6.40;99.90;;;;;;5035812;28;20245;-67
2022/11/20 03:33:56;;;;;;;15.75;10.43;;;6.50;99.90;;;;;;5051603;28;20690;-66
2022/11/20 03:36:24;;;;;;;19.25;11.15;;;6.50;99.90;;;;;;5061935;28;20201;-66
2022/11/20 03:38:54;;;;;;;14.10;11.35;;;6.60;99.90;;;;;;5053182;28;20219;-66
2022/11/20 03:41:24;;;;;;;13.60;10.20;;;6.60;99.90;;;;;;5056393;28;20188;-66
2022/11/20 03:43:54;;;;;;;12.85;9.55;;;6.60;99.90;;;;;;5073010;28;20246;-66
2022/11/20 03:46:23;;;;;;;12.45;10.30;;;6.60;99.90;;;;;;5072358;28;20199;-66
2022/11/20 03:48:53;;;;;;;15.00;10.88;;;6.60;99.90;;;;;;5072822;28;20681;-66
2022/11/20 03:51:22;;;;;;;11.95;9.93;;;6.70;99.90;;;;;;5071817;28;20235;-67
2022/11/20 03:53:52;;;;;;;18.42;11.02;;;6.70;99.90;;;;;;5070112;28;20226;-66
2022/11/20 03:56:23;;;;;;;13.38;9.57;;;6.70;99.90;;;;;;5053120;28;20188;-66
2022/11/20 03:58:51;;;;;;;18.15;11.13;;;6.70;99.90;;;;;;5064447;28;20188;-64
2022/11/20 04:01:21;;;;;;;11.88;8.68;;;6.80;99.90;;;;;;5070304;28;20195;-65
2022/11/20 04:03:50;;;;;;;12.18;10.00;;;6.70;99.90;;;;;;5064554;28;20204;-65
2022/11/20 04:06:21;;;;;;;15.88;9.15;;;6.80;99.90;;;;;;5052179;28;20204;-65
2022/11/20 04:08:49;;;;;;;14.07;9.70;;;6.80;99.90;;;;;;5053077;28;20236;-65
2022/11/20 04:11:18;;;;;;;11.55;9.98;;;6.80;99.90;;;;;;5054917;28;20604;-66
2022/11/20 04:13:48;;;;;;;17.58;9.75;;;6.80;99.90;;;;;;5054166;28;20582;-66
2022/11/20 04:16:17;;;;;;;10.07;8.05;;;6.90;99.90;;;;;;5052686;28;20212;-66
2022/11/20 04:18:45;;;;;;;16.10;8.77;;;6.90;99.90;;;;;;5052781;28;20196;-66
2022/11/20 04:21:13;;;;;;;9.27;8.25;;;6.90;99.90;;;;;;5061100;28;20199;-66
2022/11/20 04:23:42;;;;;;;14.63;8.32;;;6.90;99.90;;;;;;5065789;28;20219;-66
2022/11/20 04:26:17;;;;;;;9.50;6.82;;;6.90;99.90;;;;;;5052858;28;20762;-66
2022/11/20 04:28:49;;;;;;;11.55;8.15;;;7.00;99.90;;;;;;5052208;28;20281;-66
2022/11/20 04:31:19;;;;;;;9.20;7.75;;;7.00;99.90;;;;;;5053105;28;20216;-67
2022/11/20 04:33:47;;;;;;;11.10;8.10;;;7.00;99.90;;;;;;5053197;28;20212;-66
2022/11/20 04:36:16;;;;;;;9.52;7.57;;;7.00;99.90;;;;;;5058517;28;20541;-65
2022/11/20 04:38:45;;;;;;;8.00;7.20;;;7.00;99.90;;;;;;5051577;28;20208;-65
2022/11/20 04:41:16;;;;;;;7.47;6.68;;;7.00;99.90;;;;;;5052577;28;20604;-65
2022/11/20 04:43:48;;;;;;;9.75;7.95;;;7.00;99.90;;;;;;5053434;28;20208;-66
2022/11/20 04:46:17;;;;;;;8.70;7.78;;;7.00;99.90;;;;;;5053353;28;20204;-66
2022/11/20 04:48:45;;;;;;;8.75;6.97;;;7.10;99.90;;;;;;5062461;28;20546;-66
2022/11/20 04:51:13;;;;;;;9.52;6.90;;;7.10;99.90;;;;;;5052959;28;20217;-66
2022/11/20 04:53:41;;;;;;;8.65;7.30;;;7.00;99.90;;;;;;5062349;28;20209;-66
2022/11/20 04:56:12;;;;;;;9.63;6.95;;;7.00;99.90;;;;;;5053534;28;20199;-66
2022/11/20 04:58:41;;;;;;;8.35;7.50;;;7.10;99.90;;;;;;5051787;28;20208;-66
2022/11/20 05:01:11;;;;;;;10.40;7.07;;;7.10;99.90;;;;;;5051777;28;20197;-66
2022/11/20 05:03:39;;;;;;;7.40;6.60;;;7.00;99.90;;;;;;5050822;28;20212;-66
2022/11/20 05:06:08;;;;;;;6.25;5.72;;;7.00;99.90;;;;;;5051623;28;20203;-66
2022/11/20 05:08:36;;;;;;;8.10;6.43;;;7.00;99.90;;;;;;5051774;28;20213;-66
2022/11/20 05:11:06;;;;;;;6.43;5.82;;;7.10;99.90;;;;;;5066465;28;20220;-66
2022/11/20 05:13:35;;;;;;;6.82;6.15;;;7.10;99.90;;;;;;5058353;28;20204;-66
2022/11/20 05:16:04;;;;;;;7.20;5.45;;;7.10;99.90;;;;;;5056978;28;20207;-66
2022/11/20 05:18:33;;;;;;;6.93;6.18;;;7.10;99.90;;;;;;5070991;28;20200;-66
2022/11/20 05:21:01;;;;;;;6.15;5.35;;;7.10;99.90;;;;;;5054130;28;20204;-66
2022/11/20 05:23:33;;;;;;;10.05;6.38;;;7.10;99.90;;;;;;5050316;28;20204;-65
2022/11/20 05:26:01;;;;;;;6.18;5.65;;;7.10;99.90;;;;;;5065564;28;20245;-66
2022/11/20 05:28:31;;;;;;;7.15;6.10;;;7.10;99.90;;;;;;5070971;28;20246;-66
2022/11/20 05:31:07;;;;;;;8.18;6.15;;;7.10;99.90;;;;;;5072697;28;20199;-66
2022/11/20 05:33:35;;;;;;;7.25;5.75;;;7.10;99.90;;;;;;5074854;28;20219;-66
2022/11/20 05:36:04;;;;;;;7.03;4.47;;;7.10;99.90;;;;;;5070173;28;20212;-66
2022/11/20 05:38:33;;;;;;;11.38;5.13;;;7.10;99.90;;;;;;5075089;28;20498;-66
2022/11/20 05:41:05;;;;;;;7.15;5.65;;;7.10;99.90;;;;;;5068306;28;20203;-64
2022/11/20 05:43:34;;;;;;;6.28;5.30;;;7.10;99.90;;;;;;5056340;28;20212;-64
2022/11/20 05:46:02;;;;;;;5.75;5.25;;;7.10;99.90;;;;;;5070604;28;20223;-65
2022/11/20 05:48:32;;;;;;;5.72;5.22;;;7.10;99.90;;;;;;5063245;28;20201;-65
2022/11/20 05:51:01;;;;;;;7.55;5.43;;;7.00;99.90;;;;;;5056425;28;20197;-64
2022/11/20 05:53:30;;;;;;;7.68;5.38;;;7.00;99.90;;;;;;5054805;28;20193;-65
2022/11/20 05:55:59;;;;;;;6.13;5.50;;;7.00;99.90;;;;;;5060378;28;20642;-65
2022/11/20 05:58:27;;;;;;;6.25;5.40;;;7.00;99.90;;;;;;5074745;28;20207;-65
2022/11/20 06:00:55;;;;;;;7.15;6.20;;;7.00;99.90;;;;;;5072832;28;20204;-65
2022/11/20 06:03:23;;;;;;;16.00;12.18;;;7.00;99.90;;;;;;5073253;28;20673;-65
2022/11/20 06:05:52;;;;;;;13.23;10.15;;;6.90;99.90;;;;;;5073018;28;20609;-65
2022/11/20 06:08:20;;;;;;;10.80;9.10;;;6.90;99.90;;;;;;5063183;28;20219;-65
2022/11/20 06:10:48;;;;;;;23.13;18.73;;;6.90;99.90;;;;;;5074012;28;20204;-65
2022/11/20 06:13:16;;;;;;;52.28;38.88;;;6.90;99.90;;;;;;5069234;28;20208;-65
2022/11/20 06:15:49;;;;;;;18.15;11.55;;;6.90;99.90;;;;;;5053631;28;20625;-65
2022/11/20 06:18:17;;;;;;;14.48;9.93;;;6.90;99.90;;;;;;5054754;28;20193;-65
2022/11/20 06:20:46;;;;;;;18.83;14.93;;;6.90;99.90;;;;;;5054645;28;20197;-66
2022/11/20 06:23:15;;;;;;;77.25;52.05;;;6.90;99.90;;;;;;5054608;28;20204;-65
2022/11/20 06:25:44;;;;;;;118.45;77.18;;;7.00;99.90;;;;;;5062171;28;20654;-65
2022/11/20 06:28:12;;;;;;;51.33;31.80;;;7.00;99.90;;;;;;5074416;28;20239;-66
2022/11/20 06:30:46;;;;;;;40.08;24.90;;;6.90;99.90;;;;;;5073938;28;20200;-66
2022/11/20 06:33:14;;;;;;;23.45;16.05;;;7.00;99.90;;;;;;5057558;28;20278;-66
2022/11/20 06:35:41;;;;;;;16.98;11.30;;;7.00;99.90;;;;;;5059479;28;20208;-67
2022/11/20 06:38:09;;;;;;;10.57;9.52;;;7.00;99.90;;;;;;5060281;28;20208;-66
2022/11/20 06:40:41;;;;;;;9.32;7.03;;;7.00;99.90;;;;;;5062369;28;20602;-66
2022/11/20 06:43:08;;;;;;;9.95;8.95;;;7.00;99.90;;;;;;5063059;28;20181;-66
2022/11/20 06:45:36;;;;;;;8.57;7.05;;;7.00;99.90;;;;;;5061526;28;20651;-65
2022/11/20 06:48:05;;;;;;;12.73;7.25;;;7.00;99.90;;;;;;5061468;28;20199;-65
2022/11/20 06:50:33;;;;;;;8.23;6.93;;;7.00;99.90;;;;;;5063551;28;20196;-65
2022/11/20 06:53:03;;;;;;;20.75;8.70;;;7.00;99.90;;;;;;5064046;28;20257;-66
2022/11/20 06:55:31;;;;;;;8.10;6.80;;;7.00;99.90;;;;;;5070887;28;20207;-65
2022/11/20 06:58:00;;;;;;;7.38;6.65;;;6.90;99.90;;;;;;5065332;28;20196;-66
2022/11/20 07:00:28;;;;;;;8.10;7.13;;;7.00;99.90;;;;;;5063156;28;20200;-65
2022/11/20 07:02:56;;;;;;;8.65;7.25;;;7.00;99.90;;;;;;5060666;28;20200;-65
2022/11/20 07:05:24;;;;;;;7.53;6.82;;;7.00;99.90;;;;;;5061454;28;20202;-66
2022/11/20 07:07:52;;;;;;;7.40;6.15;;;7.00;99.90;;;;;;5060170;28;20589;-66
2022/11/20 07:10:20;;;;;;;11.10;7.18;;;7.00;99.90;;;;;;5058704;28;20550;-65
2022/11/20 07:12:51;;;;;;;8.77;5.85;;;7.00;99.90;;;;;;5062007;28;20216;-66
2022/11/20 07:15:22;;;;;;;8.48;6.07;;;7.00;99.90;;;;;;5062649;28;20188;-66
2022/11/20 07:17:50;;;;;;;8.60;7.75;;;7.00;99.90;;;;;;5060277;28;20337;-66
2022/11/20 07:20:18;;;;;;;16.63;7.95;;;7.00;99.90;;;;;;5072251;28;20213;-66
2022/11/20 07:22:46;;;;;;;9.02;6.68;;;7.00;99.90;;;;;;5067287;28;22001;-65
2022/11/20 07:25:14;;;;;;;5.97;5.40;;;7.00;99.90;;;;;;5064280;28;20284;-65
2022/11/20 07:27:41;;;;;;;9.85;6.70;;;7.00;99.90;;;;;;5076651;28;20207;-66
2022/11/20 07:30:10;;;;;;;10.07;6.95;;;7.00;99.90;;;;;;5084078;28;20196;-66
2022/11/20 07:32:39;;;;;;;8.40;6.60;;;6.90;99.90;;;;;;5074082;28;20223;-65
2022/11/20 07:35:08;;;;;;;7.97;6.90;;;6.90;99.90;;;;;;5063320;28;20201;-65
2022/11/20 07:37:36;;;;;;;7.68;6.85;;;6.90;99.90;;;;;;5062828;28;20197;-65
2022/11/20 07:40:05;;;;;;;9.02;7.45;;;6.90;99.90;;;;;;5059450;28;20215;-65
2022/11/20 07:42:33;;;;;;;6.70;6.00;;;6.90;99.90;;;;;;5055254;28;20192;-65
2022/11/20 07:45:07;;;;;;;9.35;7.13;;;6.90;99.90;;;;;;5061249;28;20199;-65
2022/11/20 07:47:36;;;;;;;9.68;8.15;;;6.90;99.90;;;;;;5064602;28;20681;-65
2022/11/20 07:50:07;;;;;;;10.73;7.68;;;6.90;99.90;;;;;;5066375;28;20196;-65
2022/11/20 07:52:35;;;;;;;7.45;6.65;;;6.90;99.90;;;;;;5066781;28;20224;-65
2022/11/20 07:55:03;;;;;;;15.20;6.90;;;6.90;99.90;;;;;;5068262;28;20197;-65
2022/11/20 07:57:31;;;;;;;7.72;6.15;;;6.90;99.90;;;;;;5055219;28;20207;-65
2022/11/20 07:59:58;;;;;;;8.07;7.22;;;6.90;99.90;;;;;;5063058;28;20200;-64
2022/11/20 08:02:26;;;;;;;9.30;8.40;;;6.90;99.90;;;;;;5054923;28;20216;-65
2022/11/20 08:04:54;;;;;;;7.35;6.50;;;7.00;99.90;;;;;;5059567;28;20650;-65
2022/11/20 08:07:24;;;;;;;6.90;6.30;;;6.90;99.90;;;;;;5066484;28;20203;-65
2022/11/20 08:09:51;;;;;;;10.60;7.47;;;7.00;99.90;;;;;;5072910;28;20200;-65
2022/11/20 08:15:08;;;;;;;10.65;7.45;;;7.00;99.90;;;;;;5072587;28;20188;-65
2022/11/20 08:17:35;;;;;;;7.80;7.10;;;7.00;99.90;;;;;;5065498;28;20200;-66
2022/11/20 08:20:04;;;;;;;7.18;6.25;;;7.00;99.90;;;;;;5072615;28;20207;-66
2022/11/20 08:22:34;;;;;;;7.80;7.00;;;7.00;99.90;;;;;;5063318;28;20192;-65
2022/11/20 08:25:02;;;;;;;10.18;7.15;;;7.10;99.90;;;;;;5060719;28;20204;-66
2022/11/20 08:27:30;;;;;;;10.35;6.97;;;7.10;99.90;;;;;;5070200;28;20196;-65
2022/11/20 08:29:57;;;;;;;9.35;6.85;;;7.10;99.90;;;;;;5073008;28;20184;-65
2022/11/20 08:32:25;;;;;;;8.80;7.90;;;7.10;99.90;;;;;;5071820;28;20211;-65
2022/11/20 08:34:53;;;;;;;7.57;6.78;;;7.10;99.90;;;;;;5061496;28;20197;-65
2022/11/20 08:37:21;;;;;;;8.80;7.28;;;7.10;99.90;;;;;;5069646;28;20682;-65
2022/11/20 08:39:50;;;;;;;8.15;7.25;;;7.10;99.90;;;;;;5072857;28;20272;-65
2022/11/20 08:42:18;;;;;;;10.52;7.85;;;7.10;99.90;;;;;;5072445;28;20419;-65
2022/11/20 08:44:46;;;;;;;11.75;7.45;;;7.20;99.90;;;;;;5062770;28;20548;-65
2022/11/20 08:47:14;;;;;;;10.05;8.05;;;7.10;99.90;;;;;;5065454;28;20192;-65
2022/11/20 08:49:42;;;;;;;9.73;8.73;;;7.10;99.90;;;;;;5056569;28;20500;-65
2022/11/20 08:52:12;;;;;;;9.57;7.97;;;7.20;99.90;;;;;;5059308;28;20223;-64
2022/11/20 08:54:40;;;;;;;11.23;8.52;;;7.20;99.90;;;;;;5090764;28;20207;-65
2022/11/20 08:57:10;;;;;;;20.88;12.43;;;7.30;99.90;;;;;;5052375;28;20246;-65
2022/11/20 08:59:37;;;;;;;13.82;9.85;;;7.30;99.90;;;;;;5055782;28;20199;-65
2022/11/20 09:02:05;;;;;;;37.95;21.08;;;7.30;99.90;;;;;;5067233;28;20207;-65
2022/11/20 09:04:33;;;;;;;31.58;19.52;;;7.40;99.90;;;;;;5060814;28;20305;-65
2022/11/20 09:07:01;;;;;;;29.17;16.00;;;7.40;99.90;;;;;;5074638;28;20200;-66
2022/11/20 09:09:29;;;;;;;12.25;8.48;;;7.40;99.90;;;;;;5066890;28;20222;-66
2022/11/20 09:11:57;;;;;;;14.55;10.82;;;7.40;99.90;;;;;;5055777;28;20730;-67
2022/11/20 09:14:29;;;;;;;15.45;11.60;;;7.50;99.90;;;;;;5055150;28;20212;-66
2022/11/20 09:16:57;;;;;;;14.32;11.57;;;7.60;99.90;;;;;;5056112;28;20227;-66
2022/11/20 09:19:26;;;;;;;10.70;8.82;;;7.80;99.90;;;;;;5064572;28;20188;-66
2022/11/20 09:21:55;;;;;;;9.32;7.28;;;7.80;99.90;;;;;;5072330;28;20195;-66
2022/11/20 09:24:23;;;;;;;14.40;11.30;;;7.90;99.90;;;;;;5068716;28;20192;-66
2022/11/20 09:26:51;;;;;;;7.28;6.35;;;7.90;99.90;;;;;;5077285;28;20215;-66
2022/11/20 09:29:18;;;;;;;6.95;6.30;;;8.00;99.90;;;;;;5072656;28;20248;-66
2022/11/20 09:31:48;;;;;;;5.60;5.10;;;8.20;99.90;;;;;;5064357;28;20208;-66
2022/11/20 09:34:15;;;;;;;4.20;3.80;;;8.20;99.90;;;;;;5075052;28;20224;-66
2022/11/20 09:36:43;;;;;;;4.80;4.25;;;8.20;99.90;;;;;;5073801;28;20245;-66
2022/11/20 09:39:11;;;;;;;6.78;4.72;;;8.20;99.90;;;;;;5070778;28;20662;-66
2022/11/20 09:42:24;;;;;;;4.30;4.00;;;8.10;99.90;;;;;;5062345;28;20213;-66
2022/11/20 09:45:08;;;;;;;4.72;4.38;;;8.00;99.90;;;;;;5054143;28;20199;-66
2022/11/20 09:47:55;;;;;;;4.78;4.22;;;7.90;99.90;;;;;;5063968;28;20238;-66
2022/11/20 09:50:31;;;;;;;7.35;4.25;;;7.80;99.90;;;;;;5053396;28;20262;-66
2022/11/20 09:53:12;;;;;;;4.50;4.20;;;7.80;99.90;;;;;;5055902;28;20196;-66
2022/11/20 09:55:41;;;;;;;5.22;4.75;;;7.80;99.90;;;;;;5065801;28;20210;-66
2022/11/20 09:58:17;;;;;;;6.03;5.43;;;7.80;99.90;;;;;;5075237;28;20208;-66
2022/11/20 10:00:46;;;;;;;4.28;3.95;;;7.80;99.90;;;;;;5073946;28;20568;-66
2022/11/20 10:03:20;;;;;;;4.95;4.55;;;7.80;99.90;;;;;;5053534;28;20202;-65
2022/11/20 10:05:52;;;;;;;4.38;4.07;;;7.80;99.90;;;;;;5054287;28;20219;-66
2022/11/20 10:08:25;;;;;;;4.45;4.00;;;7.90;99.90;;;;;;5053410;28;21107;-66
2022/11/20 10:11:01;;;;;;;4.00;3.70;;;8.00;99.90;;;;;;5054833;28;20270;-65
2022/11/20 10:13:40;;;;;;;4.38;3.97;;;8.00;99.90;;;;;;5054202;28;20232;-66
2022/11/20 10:16:19;;;;;;;4.13;3.30;;;8.10;99.90;;;;;;5058884;28;20195;-66
2022/11/20 10:19:03;;;;;;;7.20;5.85;;;8.20;99.90;;;;;;5074065;28;20184;-65
2022/11/20 10:21:41;;;;;;;3.65;3.35;;;8.30;99.90;;;;;;5071590;28;20651;-67
2022/11/20 10:24:35;;;;;;;3.65;2.95;;;8.40;99.90;;;;;;5056285;28;20196;-66
2022/11/20 10:27:16;;;;;;;3.83;3.53;;;8.40;99.90;;;;;;5065936;28;20234;-67
2022/11/20 10:29:54;;;;;;;2.92;2.70;;;8.60;99.90;;;;;;5057052;28;20289;-67
2022/11/20 10:32:29;;;;;;;4.00;2.88;;;8.90;99.90;;;;;;5075026;28;20518;-66
2022/11/20 10:35:00;;;;;;;3.63;3.25;;;9.50;99.90;;;;;;5063237;28;20207;-66
2022/11/20 10:37:32;;;;;;;2.72;2.50;;;9.70;99.90;;;;;;5037257;28;20209;-66
2022/11/20 10:40:06;;;;;;;2.55;2.30;;;9.60;99.90;;;;;;5060666;28;20659;-67
2022/11/20 10:42:42;;;;;;;3.80;2.83;;;9.50;99.90;;;;;;5063104;28;20202;-67
2022/11/20 10:45:19;;;;;;;3.80;2.60;;;9.40;99.90;;;;;;5071878;28;20191;-66
2022/11/20 10:47:47;;;;;;;3.85;2.60;;;9.30;99.90;;;;;;5073241;28;20195;-66
2022/11/20 10:50:21;;;;;;;7.10;2.15;;;9.20;99.90;;;;;;5054907;28;20651;-66
2022/11/20 10:52:56;;;;;;;3.58;2.50;;;9.20;99.90;;;;;;5054113;28;20184;-66
2022/11/20 10:55:33;;;;;;;2.53;2.30;;;9.30;99.90;;;;;;5060746;28;20694;-66
2022/11/20 10:58:08;;;;;;;2.80;2.38;;;9.40;99.90;;;;;;5073728;28;20188;-66
2022/11/20 11:00:36;;;;;;;6.93;3.08;;;9.70;99.90;;;;;;5074015;28;20192;-66
2022/11/20 11:03:14;;;;;;;9.15;3.95;;;10.00;99.90;;;;;;5065327;28;20211;-66
2022/11/20 11:05:49;;;;;;;3.42;3.13;;;9.80;99.90;;;;;;5068090;28;20191;-66
2022/11/20 11:08:22;;;;;;;4.75;3.22;;;9.80;99.90;;;;;;5069648;28;20655;-66
2022/11/20 11:10:55;;;;;;;3.45;2.25;;;9.60;99.90;;;;;;5053484;28;20232;-66
2022/11/20 11:13:25;;;;;;;3.45;2.70;;;9.80;99.90;;;;;;5066248;28;20189;-66
2022/11/20 11:15:53;;;;;;;4.43;2.95;;;9.80;99.90;;;;;;5053996;28;20247;-67
2022/11/20 11:18:26;;;;;;;3.35;2.30;;;9.40;99.90;;;;;;5070186;28;20211;-66
2022/11/20 11:20:57;;;;;;;5.50;2.65;;;9.30;99.90;;;;;;5053994;28;20193;-66
2022/11/20 11:23:34;;;;;;;2.92;2.05;;;9.20;99.90;;;;;;5055882;28;20200;-67
2022/11/20 11:26:04;;;;;;;3.15;2.40;;;9.30;99.90;;;;;;5052935;28;20191;-66
2022/11/20 11:28:32;;;;;;;4.40;2.55;;;9.30;99.90;;;;;;5051059;28;20224;-66
2022/11/20 11:31:00;;;;;;;2.20;1.90;;;9.20;99.90;;;;;;5053396;28;20200;-66
2022/11/20 11:33:30;;;;;;;2.45;2.00;;;9.80;99.90;;;;;;5052316;28;20258;-66
2022/11/20 11:36:02;;;;;;;5.47;2.90;;;9.80;99.90;;;;;;5051779;28;20213;-66
2022/11/20 11:38:35;;;;;;;3.60;1.95;;;10.20;99.90;;;;;;5052402;28;20591;-66
2022/11/20 11:41:04;;;;;;;2.50;2.30;;;10.60;99.90;;;;;;5053107;28;20588;-67
2022/11/20 11:46:37;;;;;;;5.65;2.05;;;11.00;99.90;;;;;;5052431;28;20246;-66
2022/11/20 11:49:17;;;;;;;3.88;2.03;;;10.90;99.90;;;;;;5052061;28;20193;-67
2022/11/20 11:52:00;;;;;;;6.75;2.25;;;10.90;99.90;;;;;;5051730;28;20193;-66
2022/11/20 11:54:32;;;;;;;3.92;2.50;;;11.10;99.90;;;;;;5061747;28;20706;-67
2022/11/20 11:57:04;;;;;;;10.40;2.63;;;11.50;99.90;;;;;;5068386;28;20183;-66
2022/11/20 11:59:45;;;;;;;1.83;1.70;;;11.60;99.90;;;;;;5075706;28;20596;-66
2022/11/20 12:02:29;;;;;;;2.70;2.50;;;11.50;99.90;;;;;;5057502;28;20682;-66
2022/11/20 12:05:02;;;;;;;4.13;3.50;;;11.90;99.90;;;;;;5059408;28;20595;-66
2022/11/20 12:07:40;;;;;;;3.63;2.37;;;11.80;99.90;;;;;;5060986;28;20614;-66
2022/11/20 12:10:20;;;;;;;3.17;2.60;;;11.90;99.90;;;;;;5060497;28;20608;-65
2022/11/20 12:12:54;;;;;;;2.10;2.00;;;12.20;99.90;;;;;;5054227;28;20654;-65
2022/11/20 12:15:30;;;;;;;3.20;2.50;;;12.40;99.90;;;;;;5056317;28;20654;-65
2022/11/20 12:17:58;;;;;;;4.33;2.97;;;12.40;99.90;;;;;;5051918;28;20560;-65
2022/11/20 12:20:32;;;;;;;3.27;2.87;;;12.20;99.90;;;;;;5052524;28;20602;-65
2022/11/20 12:23:16;;;;;;;3.33;3.00;;;12.00;99.90;;;;;;5052056;28;20640;-65
2022/11/20 12:25:51;;;;;;;5.97;3.10;;;11.50;99.90;;;;;;5079978;28;20899;-66
2022/11/20 12:28:39;;;;;;;2.57;2.37;;;11.20;99.90;;;;;;5072102;28;20616;-66
2022/11/20 12:31:23;;;;;;;6.23;2.83;;;10.80;99.90;;;;;;5071301;28;21124;-65
2022/11/20 12:34:09;;;;;;;6.90;2.70;;;11.10;99.90;;;;;;5071987;28;21029;-66
2022/11/20 12:36:42;;;;;;;3.25;2.85;;;10.70;99.90;;;;;;5062150;28;20582;-65
2022/11/20 12:39:35;;;;;;;3.60;2.20;;;11.70;99.90;;;;;;5053531;28;20768;-65
2022/11/20 12:45:47;;;;;;;4.80;3.20;;;11.90;99.90;;;;;;5066535;28;20633;-64
2022/11/20 12:48:31;;;;;;;3.40;3.10;;;12.20;99.90;;;;;;5063671;28;20662;-65
2022/11/20 12:51:20;;;;;;;3.97;3.50;;;12.30;99.90;;;;;;5072158;28;20945;-64
2022/11/20 12:54:01;;;;;;;3.73;3.50;;;12.10;99.90;;;;;;5091863;28;20597;-65
2022/11/20 12:56:41;;;;;;;3.93;3.47;;;11.40;99.90;;;;;;5070363;28;20686;-64
2022/11/20 12:59:28;;;;;;;4.30;4.00;;;11.30;99.90;;;;;;5049999;28;20589;-65
2022/11/20 13:02:04;;;;;;;3.50;3.30;;;11.50;99.90;;;;;;5053593;28;20970;-66
2022/11/20 13:04:56;;;;;;;3.77;3.57;;;11.30;99.90;;;;;;5051848;28;20587;-64
2022/11/20 13:07:27;;;;;;;17.52;7.10;;;11.00;99.90;;;;;;5051509;28;20607;-65
2022/11/20 13:09:56;;;;;;;5.75;3.75;;;11.00;99.90;;;;;;5054452;28;20205;-65
2022/11/20 13:12:32;;;;;;;3.70;3.50;;;10.90;99.90;;;;;;5052166;28;20235;-65
2022/11/20 13:15:11;;;;;;;4.03;3.83;;;10.60;99.90;;;;;;5055410;28;20228;-65
2022/11/20 13:17:44;;;;;;;4.25;3.72;;;10.50;99.90;;;;;;5052068;28;20189;-65